Time;durP1;ratioP1;P1;durP2;ratioP2;P2;SDS_P1;SDS_P2;PMS_P1;PMS_P2;Temp;Humidity;BMP_temperature;BMP_pressure;BME280_temperature;BME280_humidity;BME280_pressure;Samples;Min_cycle;Max_cycle;Signal;HPM_P1;HPM_P2
2021/07/27 00:01:43;;;;;;;80.18;51.53;;;;;;;;;;5071619;28;20050;-64
2021/07/27 00:04:28;;;;;;;90.93;55.55;;;;;;;;;;5031732;28;20053;-64
2021/07/27 00:07:18;;;;;;;101.72;59.65;;;;;;;;;;5031972;28;20045;-64
2021/07/27 00:10:05;;;;;;;93.85;58.15;;;;;;;;;;5031693;28;20048;-64
2021/07/27 00:12:50;;;;;;;92.18;58.00;;;;;;;;;;5039456;28;20047;-64
2021/07/27 00:15:36;;;;;;;101.38;59.85;;;;;;;;;;5067198;28;20482;-64
2021/07/27 00:18:21;;;;;;;106.45;61.60;;;;;;;;;;5071743;28;20054;-64
2021/07/27 00:21:06;;;;;;;103.53;59.50;;;;;;;;;;5071233;28;20068;-63
2021/07/27 00:23:52;;;;;;;105.70;61.63;;;;;;;;;;5068029;28;20048;-64
2021/07/27 00:26:38;;;;;;;106.70;59.88;;;;;;;;;;5071533;28;20055;-64
2021/07/27 00:29:23;;;;;;;102.60;59.75;;;;;;;;;;5071377;28;20048;-64
2021/07/27 00:32:08;;;;;;;111.88;61.58;;;;;;;;;;5056120;28;20088;-64
2021/07/27 00:34:56;;;;;;;109.47;62.17;;;;;;;;;;5065584;28;20040;-64
2021/07/27 00:37:47;;;;;;;109.45;61.33;;;;;;;;;;5071627;28;20041;-63
2021/07/27 00:40:32;;;;;;;108.63;64.13;;;;;;;;;;5074939;28;20041;-64
2021/07/27 00:43:19;;;;;;;107.00;61.95;;;;;;;;;;5066694;28;20051;-64
2021/07/27 00:46:05;;;;;;;105.75;61.47;;;;;;;;;;5034969;28;20500;-64
2021/07/27 00:48:50;;;;;;;107.18;61.55;;;;;;;;;;5034993;28;20403;-63
2021/07/27 00:51:35;;;;;;;106.90;62.50;;;;;;;;;;5033868;28;20183;-64
2021/07/27 00:54:20;;;;;;;111.72;63.03;;;;;;;;;;5043993;28;20045;-64
2021/07/27 00:57:06;;;;;;;107.32;61.63;;;;;;;;;;5064471;28;20119;-64
2021/07/27 00:59:51;;;;;;;114.45;62.63;;;;;;;;;;5053781;28;20147;-64
2021/07/27 01:02:37;;;;;;;118.00;65.00;;;;;;;;;;5053754;28;20118;-64
2021/07/27 01:05:22;;;;;;;123.65;66.53;;;;;;;;;;5063836;28;20054;-64
2021/07/27 01:08:07;;;;;;;113.40;64.93;;;;;;;;;;5074544;28;20560;-63
2021/07/27 01:10:53;;;;;;;110.47;63.50;;;;;;;;;;5074497;28;20090;-64
2021/07/27 01:13:38;;;;;;;118.60;65.75;;;;;;;;;;5074724;28;20059;-65
2021/07/27 01:16:28;;;;;;;111.28;64.68;;;;;;;;;;5073201;28;20051;-64
2021/07/27 01:38:07;;;;;;;104.68;61.33;;;;;;;;;;5034112;28;20049;-64
2021/07/27 01:43:43;;;;;;;106.53;59.85;;;;;;;;;;5034482;28;20046;-64
2021/07/27 01:46:29;;;;;;;92.18;58.03;;;;;;;;;;5049310;28;20048;-63
2021/07/27 01:49:14;;;;;;;100.05;57.35;;;;;;;;;;5033756;28;20050;-64
2021/07/27 01:52:00;;;;;;;94.93;55.75;;;;;;;;;;5033945;28;20057;-64
2021/07/27 01:54:53;;;;;;;81.85;47.78;;;;;;;;;;5033515;28;20072;-64
2021/07/27 01:57:38;;;;;;;75.47;44.47;;;;;;;;;;5061812;28;20037;-64
2021/07/27 02:00:24;;;;;;;67.70;41.45;;;;;;;;;;5073582;28;20144;-64
2021/07/27 02:03:09;;;;;;;59.33;37.80;;;;;;;;;;5073527;28;20060;-64
2021/07/27 02:05:55;;;;;;;66.60;41.33;;;;;;;;;;5073867;28;20421;-64
2021/07/27 02:08:40;;;;;;;76.07;44.45;;;;;;;;;;5034079;28;20068;-64
2021/07/27 02:11:34;;;;;;;65.32;41.58;;;;;;;;;;5033406;28;20411;-64
2021/07/27 02:14:19;;;;;;;59.70;38.72;;;;;;;;;;5033512;28;20056;-64
2021/07/27 02:17:05;;;;;;;61.80;38.78;;;;;;;;;;5041341;28;20045;-64
2021/07/27 02:19:50;;;;;;;62.03;38.33;;;;;;;;;;5073006;28;20445;-63
2021/07/27 02:22:36;;;;;;;65.03;39.28;;;;;;;;;;5073001;28;20115;-63
2021/07/27 02:25:22;;;;;;;55.38;36.58;;;;;;;;;;5073458;28;20406;-64
2021/07/27 02:28:12;;;;;;;60.85;36.38;;;;;;;;;;5070853;28;20048;-64
2021/07/27 02:31:00;;;;;;;58.80;37.67;;;;;;;;;;5071927;28;20150;-64
2021/07/27 02:33:45;;;;;;;55.08;35.97;;;;;;;;;;5072884;28;20133;-64
2021/07/27 02:36:31;;;;;;;50.15;34.78;;;;;;;;;;5072740;28;20575;-64
2021/07/27 02:39:16;;;;;;;56.55;36.08;;;;;;;;;;5071331;28;20422;-64
2021/07/27 02:42:02;;;;;;;50.17;34.38;;;;;;;;;;5072926;28;20055;-64
2021/07/27 02:44:47;;;;;;;46.67;34.50;;;;;;;;;;5072485;28;20040;-64
2021/07/27 02:47:33;;;;;;;47.95;32.17;;;;;;;;;;5072533;28;20048;-64
2021/07/27 02:50:19;;;;;;;49.55;33.50;;;;;;;;;;5069107;28;20407;-64
2021/07/27 02:53:04;;;;;;;54.05;34.28;;;;;;;;;;5072741;28;20418;-64
2021/07/27 02:55:49;;;;;;;52.47;34.95;;;;;;;;;;5072739;28;20049;-64
2021/07/27 02:58:37;;;;;;;47.95;34.20;;;;;;;;;;5071001;28;20462;-64
2021/07/27 03:01:23;;;;;;;44.53;32.47;;;;;;;;;;5070463;28;20513;-64
2021/07/27 03:04:08;;;;;;;44.72;32.10;;;;;;;;;;5072474;28;20437;-64
2021/07/27 03:06:53;;;;;;;43.28;31.00;;;;;;;;;;5071322;28;20473;-64
2021/07/27 03:10:17;;;;;;;45.72;32.55;;;;;;;;;;5069583;28;20136;-64
2021/07/27 03:12:54;;;;;;;40.33;30.20;;;;;;;;;;5072401;28;20055;-64
2021/07/27 03:15:40;;;;;;;43.72;31.00;;;;;;;;;;5072200;28;20127;-64
2021/07/27 03:18:25;;;;;;;42.55;30.65;;;;;;;;;;5072236;28;20059;-64
2021/07/27 03:21:14;;;;;;;35.92;27.33;;;;;;;;;;5032256;28;20046;-64
2021/07/27 03:23:59;;;;;;;42.42;29.92;;;;;;;;;;5032725;28;20052;-64
2021/07/27 03:26:45;;;;;;;37.80;29.52;;;;;;;;;;5032679;28;20049;-65
2021/07/27 03:29:31;;;;;;;40.45;29.65;;;;;;;;;;5040228;28;20445;-64
2021/07/27 03:32:16;;;;;;;36.13;28.70;;;;;;;;;;5071156;28;20129;-64
2021/07/27 03:35:01;;;;;;;38.00;27.83;;;;;;;;;;5072330;28;20049;-64
2021/07/27 03:37:47;;;;;;;36.88;26.90;;;;;;;;;;5072225;28;20045;-64
2021/07/27 03:40:34;;;;;;;35.38;26.77;;;;;;;;;;5053445;28;20048;-64
2021/07/27 03:43:20;;;;;;;36.60;26.92;;;;;;;;;;5032277;28;20176;-64
2021/07/27 03:46:05;;;;;;;38.22;27.20;;;;;;;;;;5032717;28;20057;-64
2021/07/27 03:48:51;;;;;;;37.28;28.13;;;;;;;;;;5032024;28;20072;-64
2021/07/27 03:51:36;;;;;;;39.08;28.73;;;;;;;;;;5062591;28;20045;-64
2021/07/27 03:54:22;;;;;;;43.25;30.75;;;;;;;;;;5070407;28;20044;-63
2021/07/27 03:57:08;;;;;;;46.95;30.83;;;;;;;;;;5072081;28;20051;-64
2021/07/27 03:59:53;;;;;;;36.15;28.20;;;;;;;;;;5071672;28;20197;-64
2021/07/27 04:02:39;;;;;;;42.90;30.73;;;;;;;;;;5032124;28;20046;-64
2021/07/27 04:05:24;;;;;;;46.17;31.90;;;;;;;;;;5031924;28;20045;-64
2021/07/27 04:08:10;;;;;;;41.08;30.73;;;;;;;;;;5031973;28;20061;-64
2021/07/27 04:11:00;;;;;;;42.95;30.30;;;;;;;;;;5040104;28;20044;-64
2021/07/27 04:13:45;;;;;;;44.20;31.00;;;;;;;;;;5073902;28;20059;-65
2021/07/27 04:16:31;;;;;;;40.67;30.15;;;;;;;;;;5075372;28;20053;-65
2021/07/27 04:19:16;;;;;;;48.55;32.53;;;;;;;;;;5076005;28;20044;-64
2021/07/27 04:22:02;;;;;;;43.28;31.52;;;;;;;;;;5073161;28;20060;-64
2021/07/27 04:24:47;;;;;;;45.53;31.38;;;;;;;;;;5076157;28;20125;-64
2021/07/27 04:27:32;;;;;;;43.45;30.50;;;;;;;;;;5075301;28;20498;-64
2021/07/27 04:30:19;;;;;;;42.85;29.73;;;;;;;;;;5075247;28;20053;-64
2021/07/27 04:33:04;;;;;;;44.67;32.78;;;;;;;;;;5074015;28;20049;-64
2021/07/27 04:35:49;;;;;;;44.95;32.53;;;;;;;;;;5075466;28;20052;-63
2021/07/27 04:38:35;;;;;;;44.85;32.28;;;;;;;;;;5075059;28;20057;-64
2021/07/27 04:41:24;;;;;;;49.67;32.67;;;;;;;;;;5075394;28;20044;-64
2021/07/27 04:44:10;;;;;;;49.63;33.58;;;;;;;;;;5047187;28;20052;-64
2021/07/27 04:46:55;;;;;;;45.08;34.15;;;;;;;;;;5076340;28;20052;-64
2021/07/27 04:49:40;;;;;;;52.00;36.60;;;;;;;;;;5074631;28;20141;-64
2021/07/27 04:52:26;;;;;;;54.88;36.10;;;;;;;;;;5073449;28;20564;-64
2021/07/27 04:55:11;;;;;;;49.55;35.20;;;;;;;;;;5074965;28;20036;-63
2021/07/27 04:57:57;;;;;;;43.22;31.55;;;;;;;;;;5075009;28;20055;-63
2021/07/27 05:00:42;;;;;;;36.70;29.52;;;;;;;;;;5074590;28;20046;-64
2021/07/27 05:03:31;;;;;;;41.55;29.45;;;;;;;;;;5073919;28;20045;-64
2021/07/27 05:06:24;;;;;;;39.40;29.48;;;;;;;;;;5074595;28;20048;-64
2021/07/27 05:09:10;;;;;;;41.65;31.20;;;;;;;;;;5074757;28;20055;-64
2021/07/27 05:11:56;;;;;;;46.40;32.20;;;;;;;;;;5067364;28;20056;-64
2021/07/27 05:14:42;;;;;;;39.15;30.75;;;;;;;;;;5053527;28;20566;-64
2021/07/27 05:17:27;;;;;;;48.20;35.60;;;;;;;;;;5052930;28;20057;-65
2021/07/27 05:20:13;;;;;;;51.08;36.15;;;;;;;;;;5052970;28;20045;-64
2021/07/27 05:22:58;;;;;;;53.13;36.28;;;;;;;;;;5052056;28;20044;-64
2021/07/27 05:25:43;;;;;;;58.20;37.38;;;;;;;;;;5050093;28;20045;-64
2021/07/27 05:28:29;;;;;;;54.90;36.40;;;;;;;;;;5053223;28;20045;-64
2021/07/27 05:31:15;;;;;;;56.10;38.58;;;;;;;;;;5053405;28;20040;-65
2021/07/27 05:34:00;;;;;;;61.55;41.22;;;;;;;;;;5054987;28;20052;-64
2021/07/27 05:36:45;;;;;;;64.45;43.67;;;;;;;;;;5054072;28;20407;-65
2021/07/27 05:39:31;;;;;;;78.07;46.60;;;;;;;;;;5051534;28;20052;-64
2021/07/27 05:42:16;;;;;;;78.82;48.65;;;;;;;;;;5053057;28;20048;-64
2021/07/27 05:45:03;;;;;;;90.97;51.22;;;;;;;;;;5052187;28;20037;-65
2021/07/27 05:47:48;;;;;;;82.18;47.90;;;;;;;;;;5052841;28;20044;-64
2021/07/27 05:50:33;;;;;;;80.75;49.78;;;;;;;;;;5052922;28;20095;-64
2021/07/27 05:53:21;;;;;;;83.07;48.08;;;;;;;;;;5052061;28;20081;-64
2021/07/27 05:56:06;;;;;;;74.20;47.13;;;;;;;;;;5052837;28;20056;-65
2021/07/27 05:58:52;;;;;;;77.55;49.22;;;;;;;;;;5053590;28;20513;-64
2021/07/27 06:01:37;;;;;;;71.80;46.83;;;;;;;;;;5063621;28;20045;-64
2021/07/27 06:04:23;;;;;;;76.03;49.40;;;;;;;;;;5073569;28;20045;-64
2021/07/27 06:07:08;;;;;;;74.38;47.42;;;;;;;;;;5073340;28;20072;-65
2021/07/27 06:09:53;;;;;;;72.55;49.28;;;;;;;;;;5073351;28;20433;-65
2021/07/27 06:12:39;;;;;;;76.95;49.83;;;;;;;;;;5073622;28;20054;-65
2021/07/27 06:15:24;;;;;;;73.10;48.78;;;;;;;;;;5073503;28;20060;-65
2021/07/27 06:18:09;;;;;;;64.07;44.05;;;;;;;;;;5073377;28;20406;-65
2021/07/27 06:20:55;;;;;;;78.53;48.10;;;;;;;;;;5071865;28;20062;-65
2021/07/27 06:23:40;;;;;;;76.57;49.38;;;;;;;;;;5073331;28;20056;-65
2021/07/27 06:26:26;;;;;;;74.22;47.55;;;;;;;;;;5073179;28;20071;-65
2021/07/27 06:29:11;;;;;;;70.68;48.97;;;;;;;;;;5054253;28;20132;-65
2021/07/27 06:31:57;;;;;;;79.50;51.65;;;;;;;;;;5051090;28;20120;-65
2021/07/27 06:34:44;;;;;;;82.03;52.67;;;;;;;;;;5052271;28;20044;-65
2021/07/27 06:37:29;;;;;;;84.45;54.03;;;;;;;;;;5052062;28;20127;-65
2021/07/27 06:40:14;;;;;;;80.28;53.75;;;;;;;;;;5050898;28;20138;-64
2021/07/27 06:43:00;;;;;;;78.20;51.72;;;;;;;;;;5059009;28;20047;-65
2021/07/27 06:45:52;;;;;;;84.95;53.63;;;;;;;;;;5061371;28;20183;-65
2021/07/27 06:48:37;;;;;;;89.60;55.55;;;;;;;;;;5050985;28;20043;-64
2021/07/27 06:51:22;;;;;;;79.40;52.03;;;;;;;;;;5050344;28;20045;-65
2021/07/27 06:54:11;;;;;;;87.32;57.17;;;;;;;;;;5050163;28;20053;-65
2021/07/27 06:56:56;;;;;;;87.50;55.90;;;;;;;;;;5049884;28;20103;-65
2021/07/27 06:59:41;;;;;;;87.35;56.80;;;;;;;;;;5049979;28;20048;-65
2021/07/27 07:02:29;;;;;;;78.32;54.45;;;;;;;;;;5066531;28;20077;-65
2021/07/27 07:05:15;;;;;;;72.22;50.35;;;;;;;;;;5053254;28;20053;-65
2021/07/27 07:08:00;;;;;;;71.30;50.80;;;;;;;;;;5049827;28;20538;-65
2021/07/27 07:10:46;;;;;;;75.43;51.50;;;;;;;;;;5053091;28;20128;-65
2021/07/27 07:13:31;;;;;;;77.50;51.90;;;;;;;;;;5070460;28;20051;-65
2021/07/27 07:16:17;;;;;;;70.13;48.22;;;;;;;;;;5069667;28;20055;-65
2021/07/27 07:19:02;;;;;;;71.97;48.38;;;;;;;;;;5064772;28;20045;-65
2021/07/27 07:21:48;;;;;;;66.13;48.08;;;;;;;;;;5067955;28;20407;-65
2021/07/27 07:24:33;;;;;;;60.42;45.00;;;;;;;;;;5052647;28;20079;-65
2021/07/27 07:27:18;;;;;;;60.80;44.17;;;;;;;;;;5046885;28;20142;-65
2021/07/27 07:30:04;;;;;;;58.03;44.15;;;;;;;;;;5041085;28;20126;-65
2021/07/27 07:32:50;;;;;;;63.05;45.53;;;;;;;;;;5052319;28;20060;-65
2021/07/27 07:35:36;;;;;;;62.88;45.05;;;;;;;;;;5049385;28;20053;-65
2021/07/27 07:38:21;;;;;;;60.13;45.10;;;;;;;;;;5047538;28;20049;-65
2021/07/27 07:41:10;;;;;;;62.63;45.67;;;;;;;;;;5047171;28;20075;-65
2021/07/27 07:43:55;;;;;;;51.67;40.92;;;;;;;;;;5029128;28;20500;-65
2021/07/27 07:46:41;;;;;;;57.63;41.03;;;;;;;;;;5029795;28;20466;-64
2021/07/27 07:49:26;;;;;;;60.17;42.22;;;;;;;;;;5029651;28;20049;-64
2021/07/27 07:52:11;;;;;;;54.80;42.17;;;;;;;;;;5038914;28;20106;-65
2021/07/27 07:54:56;;;;;;;59.47;44.15;;;;;;;;;;5069307;28;20055;-65
2021/07/27 07:57:41;;;;;;;56.88;41.55;;;;;;;;;;5069634;28;20080;-65
2021/07/27 08:00:27;;;;;;;59.00;43.08;;;;;;;;;;5069164;28;20052;-65
2021/07/27 08:03:12;;;;;;;53.05;42.28;;;;;;;;;;5067669;28;20040;-65
2021/07/27 08:05:57;;;;;;;53.70;42.45;;;;;;;;;;5049039;28;20118;-65
2021/07/27 08:08:42;;;;;;;59.13;43.85;;;;;;;;;;5049744;28;20504;-64
2021/07/27 08:11:28;;;;;;;58.97;44.03;;;;;;;;;;5049588;28;20136;-65
2021/07/27 08:14:13;;;;;;;54.47;43.55;;;;;;;;;;5032770;28;20045;-65
2021/07/27 08:16:59;;;;;;;53.45;42.47;;;;;;;;;;5029132;28;20072;-66
2021/07/27 08:19:45;;;;;;;53.13;42.55;;;;;;;;;;5024780;28;20385;-64
2021/07/27 08:22:30;;;;;;;50.88;41.58;;;;;;;;;;5029640;28;20054;-65
2021/07/27 08:25:16;;;;;;;51.58;41.05;;;;;;;;;;5030066;28;20175;-65
2021/07/27 08:28:02;;;;;;;51.83;41.90;;;;;;;;;;5028794;28;20041;-65
2021/07/27 08:30:47;;;;;;;54.38;40.47;;;;;;;;;;5047300;28;20040;-65
2021/07/27 08:33:33;;;;;;;50.28;39.58;;;;;;;;;;5049103;28;20041;-65
2021/07/27 08:36:18;;;;;;;51.90;40.40;;;;;;;;;;5050674;28;20045;-65
2021/07/27 08:39:03;;;;;;;52.30;39.70;;;;;;;;;;5046264;28;20049;-65
2021/07/27 08:41:49;;;;;;;51.35;39.15;;;;;;;;;;5048851;28;20124;-65
2021/07/27 08:44:35;;;;;;;41.28;35.47;;;;;;;;;;5047432;28;20051;-65
2021/07/27 08:47:20;;;;;;;43.95;38.28;;;;;;;;;;5048119;28;20128;-65
2021/07/27 08:50:06;;;;;;;42.13;35.63;;;;;;;;;;5036222;22;20614;-67
2021/07/27 08:52:51;;;;;;;45.17;36.47;;;;;;;;;;5017960;28;20052;-65
2021/07/27 08:55:37;;;;;;;45.90;37.25;;;;;;;;;;5014475;28;20065;-66
2021/07/27 08:58:22;;;;;;;41.22;35.50;;;;;;;;;;5016549;28;20049;-66
2021/07/27 09:01:07;;;;;;;44.95;37.35;;;;;;;;;;5015372;28;20054;-66
2021/07/27 09:03:53;;;;;;;37.10;32.22;;;;;;;;;;5004349;28;20058;-66
2021/07/27 09:06:38;;;;;;;39.03;34.05;;;;;;;;;;4996114;28;20050;-65
2021/07/27 09:09:29;;;;;;;41.08;34.75;;;;;;;;;;5000522;28;20165;-66
2021/07/27 09:12:14;;;;;;;42.58;34.17;;;;;;;;;;5003899;28;20050;-65
2021/07/27 09:15:04;;;;;;;38.00;32.63;;;;;;;;;;5009449;28;20514;-65
2021/07/27 09:17:53;;;;;;;38.75;33.53;;;;;;;;;;5002929;28;20050;-65
2021/07/27 09:20:39;;;;;;;36.22;32.05;;;;;;;;;;5011433;28;20049;-65
2021/07/27 09:23:26;;;;;;;39.78;31.75;;;;;;;;;;5012709;28;20149;-66
2021/07/27 09:26:12;;;;;;;36.88;32.88;;;;;;;;;;5010248;28;20045;-66
2021/07/27 09:29:04;;;;;;;38.22;33.35;;;;;;;;;;5011875;28;20057;-65
2021/07/27 09:31:52;;;;;;;31.85;28.45;;;;;;;;;;5001627;28;20054;-65
2021/07/27 09:34:38;;;;;;;29.23;26.33;;;;;;;;;;5012536;28;20046;-65
2021/07/27 09:37:26;;;;;;;29.33;26.13;;;;;;;;;;5012389;28;20050;-65
2021/07/27 09:40:12;;;;;;;29.30;26.20;;;;;;;;;;4994334;28;20499;-65
2021/07/27 09:42:57;;;;;;;30.42;26.67;;;;;;;;;;4991108;28;20050;-65
2021/07/27 09:45:43;;;;;;;24.98;22.38;;;;;;;;;;4994173;28;20505;-66
2021/07/27 09:48:29;;;;;;;29.08;23.35;;;;;;;;;;4992306;28;20062;-66
2021/07/27 09:51:15;;;;;;;27.45;23.65;;;;;;;;;;4991670;28;20042;-64
2021/07/27 09:54:00;;;;;;;22.83;20.52;;;;;;;;;;4994097;28;20053;-64
2021/07/27 09:56:46;;;;;;;22.27;20.20;;;;;;;;;;4992688;28;20049;-64
2021/07/27 09:59:31;;;;;;;24.27;21.67;;;;;;;;;;4997852;28;20056;-64
2021/07/27 10:02:17;;;;;;;23.20;20.98;;;;;;;;;;5005513;28;20058;-64
2021/07/27 10:05:02;;;;;;;25.08;21.95;;;;;;;;;;5010200;28;20060;-64
2021/07/27 10:07:57;;;;;;;22.52;20.27;;;;;;;;;;5008878;28;20103;-64
2021/07/27 10:10:43;;;;;;;23.27;20.90;;;;;;;;;;5009104;28;20062;-63
2021/07/27 10:13:33;;;;;;;20.85;18.80;;;;;;;;;;5010541;28;20412;-63
2021/07/27 10:16:21;;;;;;;21.42;19.13;;;;;;;;;;5011277;28;20044;-63
2021/07/27 10:19:19;;;;;;;20.83;18.77;;;;;;;;;;4993057;28;20087;-63
2021/07/27 10:22:05;;;;;;;21.45;19.25;;;;;;;;;;4991386;28;20052;-62
2021/07/27 10:24:51;;;;;;;21.20;19.10;;;;;;;;;;5009603;28;20046;-63
2021/07/27 10:27:36;;;;;;;20.73;18.58;;;;;;;;;;5011021;28;20049;-64
2021/07/27 10:30:31;;;;;;;21.60;19.50;;;;;;;;;;5000695;28;20150;-63
2021/07/27 10:33:16;;;;;;;21.15;18.95;;;;;;;;;;4991274;28;20241;-64
2021/07/27 10:36:02;;;;;;;21.52;18.10;;;;;;;;;;4989970;28;20050;-63
2021/07/27 10:38:47;;;;;;;24.35;20.63;;;;;;;;;;4993345;28;20070;-63
2021/07/27 10:41:42;;;;;;;24.48;19.77;;;;;;;;;;4991663;28;20054;-64
2021/07/27 10:44:36;;;;;;;23.20;20.95;;;;;;;;;;4999701;28;20042;-64
2021/07/27 10:47:26;;;;;;;22.30;19.90;;;;;;;;;;5010566;28;20104;-63
2021/07/27 10:50:12;;;;;;;22.27;19.88;;;;;;;;;;5010098;28;20512;-65
2021/07/27 10:53:00;;;;;;;23.70;21.20;;;;;;;;;;4991360;28;20535;-64
2021/07/27 10:55:45;;;;;;;22.40;20.00;;;;;;;;;;4991564;28;20062;-65
2021/07/27 10:58:31;;;;;;;22.58;20.27;;;;;;;;;;5001039;28;20048;-66
2021/07/27 11:01:17;;;;;;;24.70;19.95;;;;;;;;;;5008950;28;21001;-65
2021/07/27 11:04:12;;;;;;;24.05;19.98;;;;;;;;;;5005247;28;20056;-66
2021/07/27 11:07:07;;;;;;;22.10;19.80;;;;;;;;;;4990348;28;20050;-66
2021/07/27 11:09:53;;;;;;;24.10;21.60;;;;;;;;;;4990752;28;20121;-66
2021/07/27 11:12:39;;;;;;;24.60;22.00;;;;;;;;;;5003283;28;20053;-66
2021/07/27 11:15:28;;;;;;;24.23;21.83;;;;;;;;;;5010666;28;20065;-65
2021/07/27 11:18:17;;;;;;;22.90;20.70;;;;;;;;;;5008869;28;20046;-65
2021/07/27 11:21:02;;;;;;;24.95;22.52;;;;;;;;;;5009837;28;20225;-67
2021/07/27 11:23:48;;;;;;;23.60;21.20;;;;;;;;;;5001529;28;20160;-65
2021/07/27 11:26:39;;;;;;;24.05;21.48;;;;;;;;;;5005353;28;20053;-66
2021/07/27 11:29:24;;;;;;;25.08;21.92;;;;;;;;;;4990091;28;20042;-66
2021/07/27 11:32:13;;;;;;;22.55;20.35;;;;;;;;;;4998711;28;20079;-66
2021/07/27 11:34:59;;;;;;;22.83;20.35;;;;;;;;;;5007379;28;20173;-66
2021/07/27 11:37:45;;;;;;;23.20;20.42;;;;;;;;;;5008957;28;20038;-65
2021/07/27 11:40:31;;;;;;;23.63;20.15;;;;;;;;;;5006483;28;20123;-66
2021/07/27 11:43:18;;;;;;;22.48;20.23;;;;;;;;;;5008826;28;20050;-66
2021/07/27 11:46:08;;;;;;;22.63;20.52;;;;;;;;;;5008830;28;20041;-66
2021/07/27 11:48:56;;;;;;;22.98;20.17;;;;;;;;;;5008376;28;20056;-66
2021/07/27 11:51:41;;;;;;;22.00;19.75;;;;;;;;;;5009087;28;20061;-66
2021/07/27 11:54:27;;;;;;;22.33;20.13;;;;;;;;;;5006795;28;20042;-65
2021/07/27 11:57:20;;;;;;;24.30;21.27;;;;;;;;;;5006975;28;20069;-66
2021/07/27 12:00:09;;;;;;;24.48;21.95;;;;;;;;;;5009181;28;20042;-65
2021/07/27 12:02:54;;;;;;;23.00;20.58;;;;;;;;;;4993267;28;20061;-66
2021/07/27 12:05:39;;;;;;;25.08;21.95;;;;;;;;;;5018540;28;20108;-66
2021/07/27 12:08:25;;;;;;;24.13;21.63;;;;;;;;;;5029968;28;20157;-65
2021/07/27 12:11:10;;;;;;;25.02;22.52;;;;;;;;;;5004839;28;20062;-65
2021/07/27 12:13:55;;;;;;;22.77;19.98;;;;;;;;;;4990485;28;20054;-65
2021/07/27 12:16:40;;;;;;;23.63;20.45;;;;;;;;;;5005852;28;20057;-64
2021/07/27 12:19:25;;;;;;;23.88;20.15;;;;;;;;;;5008746;28;20548;-65
2021/07/27 12:22:11;;;;;;;23.00;20.58;;;;;;;;;;5007482;28;20054;-66
2021/07/27 12:24:56;;;;;;;24.80;20.00;;;;;;;;;;5008948;28;20119;-65
2021/07/27 12:27:42;;;;;;;21.05;18.80;;;;;;;;;;5005947;28;20069;-66
2021/07/27 12:30:27;;;;;;;22.15;19.95;;;;;;;;;;5007449;28;20046;-65
2021/07/27 12:33:14;;;;;;;25.17;18.17;;;;;;;;;;5008797;28;20046;-65
2021/07/27 12:36:00;;;;;;;18.83;16.98;;;;;;;;;;5002832;28;20046;-66
2021/07/27 12:38:46;;;;;;;19.58;17.55;;;;;;;;;;4993715;28;20467;-65
2021/07/27 12:41:31;;;;;;;20.38;18.27;;;;;;;;;;5003004;28;20064;-65
2021/07/27 12:44:16;;;;;;;21.17;18.95;;;;;;;;;;5012658;28;20057;-66
2021/07/27 12:47:02;;;;;;;22.45;19.77;;;;;;;;;;5010741;28;20053;-66
2021/07/27 12:49:47;;;;;;;21.90;19.70;;;;;;;;;;5013058;28;20046;-66
2021/07/27 12:52:32;;;;;;;21.33;19.02;;;;;;;;;;5011528;28;20054;-66
2021/07/27 12:55:17;;;;;;;21.77;19.55;;;;;;;;;;4997006;28;20189;-65
2021/07/27 12:58:03;;;;;;;21.33;19.10;;;;;;;;;;4992744;28;20053;-66
2021/07/27 13:00:48;;;;;;;22.73;19.75;;;;;;;;;;4993142;28;20046;-66
2021/07/27 13:03:34;;;;;;;20.63;18.08;;;;;;;;;;5001535;28;20076;-66
2021/07/27 13:06:19;;;;;;;21.83;19.63;;;;;;;;;;5011659;28;20038;-66
2021/07/27 13:09:04;;;;;;;21.55;19.45;;;;;;;;;;5010326;28;20538;-68
2021/07/27 13:11:49;;;;;;;22.48;20.23;;;;;;;;;;5011839;28;20108;-66
2021/07/27 13:14:35;;;;;;;23.20;20.90;;;;;;;;;;5013032;28;20046;-66
2021/07/27 13:17:20;;;;;;;22.13;19.75;;;;;;;;;;5010488;28;20042;-67
2021/07/27 13:20:06;;;;;;;20.80;18.70;;;;;;;;;;5011693;28;20053;-65
2021/07/27 13:22:51;;;;;;;24.30;19.35;;;;;;;;;;5010232;28;20072;-66
2021/07/27 13:25:36;;;;;;;21.60;19.48;;;;;;;;;;5009611;28;20038;-66
2021/07/27 13:28:21;;;;;;;22.88;20.58;;;;;;;;;;5009643;28;20049;-65
2021/07/27 13:31:07;;;;;;;22.02;19.95;;;;;;;;;;5006487;28;20065;-66
2021/07/27 13:33:52;;;;;;;22.98;20.45;;;;;;;;;;5008189;28;20372;-65
2021/07/27 13:36:37;;;;;;;23.27;20.90;;;;;;;;;;5007711;28;20045;-66
2021/07/27 13:39:23;;;;;;;22.70;20.50;;;;;;;;;;5014521;28;20045;-66
2021/07/27 13:42:09;;;;;;;25.33;22.92;;;;;;;;;;5013755;28;20042;-67
2021/07/27 13:44:54;;;;;;;27.83;23.20;;;;;;;;;;5014154;28;20124;-65
2021/07/27 13:47:39;;;;;;;27.40;24.77;;;;;;;;;;5012721;28;20044;-66
2021/07/27 13:50:25;;;;;;;28.58;25.60;;;;;;;;;;5009594;28;20038;-67
2021/07/27 13:53:11;;;;;;;27.77;24.90;;;;;;;;;;4991632;28;20045;-67
2021/07/27 13:55:58;;;;;;;26.20;23.58;;;;;;;;;;4994181;28;20049;-67
2021/07/27 13:58:44;;;;;;;27.38;24.65;;;;;;;;;;5008154;28;20052;-66
2021/07/27 14:01:30;;;;;;;28.83;26.00;;;;;;;;;;5006460;28;20037;-65
2021/07/27 14:04:16;;;;;;;27.67;25.02;;;;;;;;;;5008233;28;20133;-65
2021/07/27 14:07:02;;;;;;;31.80;26.65;;;;;;;;;;4995331;28;20499;-65
2021/07/27 14:09:48;;;;;;;27.65;24.83;;;;;;;;;;4990649;28;20125;-65
2021/07/27 14:12:35;;;;;;;29.67;26.20;;;;;;;;;;5009422;28;20076;-65
2021/07/27 14:15:22;;;;;;;29.52;26.50;;;;;;;;;;5007412;28;20603;-67
2021/07/27 14:18:07;;;;;;;28.45;25.58;;;;;;;;;;5009407;28;20139;-65
2021/07/27 14:20:52;;;;;;;28.70;25.83;;;;;;;;;;5010529;28;20108;-66
2021/07/27 14:23:38;;;;;;;28.33;25.63;;;;;;;;;;5011009;28;20045;-66
2021/07/27 14:26:23;;;;;;;30.90;27.70;;;;;;;;;;5008253;28;20053;-66
2021/07/27 14:29:09;;;;;;;29.13;25.58;;;;;;;;;;4999173;28;20058;-65
2021/07/27 14:31:54;;;;;;;26.75;24.15;;;;;;;;;;5005974;28;20377;-66
2021/07/27 14:34:39;;;;;;;26.63;23.25;;;;;;;;;;5010012;28;20068;-65
2021/07/27 14:37:25;;;;;;;25.50;23.00;;;;;;;;;;5010727;28;20038;-66
2021/07/27 14:40:11;;;;;;;19.80;17.70;;;;;;;;;;5009538;28;20045;-65
2021/07/27 14:42:57;;;;;;;16.60;14.82;;;;;;;;;;5007147;28;20099;-66
2021/07/27 14:45:42;;;;;;;13.23;11.93;;;;;;;;;;5002886;28;20053;-67
2021/07/27 14:48:27;;;;;;;9.75;8.77;;;;;;;;;;5008593;28;20044;-66
2021/07/27 14:51:13;;;;;;;8.70;7.80;;;;;;;;;;5009082;28;20069;-67
2021/07/27 14:53:58;;;;;;;6.18;5.10;;;;;;;;;;5005383;28;20054;-66
2021/07/27 14:56:43;;;;;;;5.40;4.88;;;;;;;;;;5040346;22;20079;-62
2021/07/27 14:59:28;;;;;;;4.65;4.22;;;;;;;;;;5057358;28;20037;-62
2021/07/27 15:02:14;;;;;;;5.20;4.70;;;;;;;;;;5047625;28;20057;-63
2021/07/27 15:04:59;;;;;;;6.53;4.90;;;;;;;;;;5039347;28;20048;-62
2021/07/27 15:07:45;;;;;;;6.65;6.05;;;;;;;;;;5039327;28;20048;-63
2021/07/27 15:10:30;;;;;;;6.20;5.63;;;;;;;;;;5038620;28;20045;-63
2021/07/27 15:13:15;;;;;;;6.63;5.88;;;;;;;;;;5033237;28;20048;-62
2021/07/27 15:16:00;;;;;;;7.03;6.32;;;;;;;;;;5029679;28;20464;-62
2021/07/27 15:18:45;;;;;;;7.10;5.82;;;;;;;;;;5029116;28;20120;-62
2021/07/27 15:21:33;;;;;;;5.20;4.80;;;;;;;;;;5013892;28;20049;-63
2021/07/27 15:24:18;;;;;;;5.47;4.28;;;;;;;;;;5029342;28;20438;-63
2021/07/27 15:27:04;;;;;;;6.28;4.63;;;;;;;;;;5029019;28;20518;-63
2021/07/27 15:29:50;;;;;;;5.50;4.07;;;;;;;;;;5024485;28;20076;-62
2021/07/27 15:32:36;;;;;;;5.20;3.70;;;;;;;;;;5028350;28;20051;-62
2021/07/27 15:35:21;;;;;;;3.75;3.45;;;;;;;;;;5029829;28;20057;-62
2021/07/27 15:38:06;;;;;;;5.53;3.63;;;;;;;;;;5044892;28;20549;-62
2021/07/27 15:40:52;;;;;;;5.65;3.67;;;;;;;;;;5047425;28;20040;-61
2021/07/27 15:43:37;;;;;;;4.38;3.97;;;;;;;;;;5031075;28;20046;-62
2021/07/27 15:46:23;;;;;;;3.55;3.25;;;;;;;;;;5029732;28;20045;-62
2021/07/27 15:49:09;;;;;;;4.70;3.72;;;;;;;;;;5029970;28;20052;-62
2021/07/27 15:51:54;;;;;;;4.47;4.05;;;;;;;;;;5028767;28;20549;-62
2021/07/27 15:54:41;;;;;;;4.68;3.83;;;;;;;;;;5009769;28;20088;-62
2021/07/27 15:57:26;;;;;;;5.75;4.50;;;;;;;;;;5017553;28;20041;-62
2021/07/27 16:00:12;;;;;;;6.10;5.43;;;;;;;;;;5029507;28;20049;-62
2021/07/27 16:02:57;;;;;;;5.25;4.75;;;;;;;;;;5028025;28;20523;-62
2021/07/27 16:05:42;;;;;;;7.78;5.22;;;;;;;;;;5029471;28;20045;-62
2021/07/27 16:08:28;;;;;;;7.88;6.15;;;;;;;;;;5029824;28;20132;-62
2021/07/27 16:11:14;;;;;;;8.00;7.20;;;;;;;;;;5033410;28;20500;-62
2021/07/27 16:13:59;;;;;;;8.30;7.50;;;;;;;;;;5033662;28;20072;-62
2021/07/27 16:16:44;;;;;;;8.80;7.90;;;;;;;;;;5035026;28;20566;-62
2021/07/27 16:19:29;;;;;;;8.02;7.32;;;;;;;;;;5036497;28;20503;-63
2021/07/27 16:22:15;;;;;;;10.00;7.78;;;;;;;;;;5033511;28;20123;-62
2021/07/27 16:25:00;;;;;;;11.23;7.80;;;;;;;;;;5027428;28;20072;-61
2021/07/27 16:27:45;;;;;;;7.75;7.03;;;;;;;;;;5020365;28;20049;-61
2021/07/27 16:30:30;;;;;;;8.02;7.22;;;;;;;;;;5008468;28;20060;-61